Time;durP1;ratioP1;P1;durP2;ratioP2;P2;SDS_P1;SDS_P2;PMS_P1;PMS_P2;Temp;Humidity;BMP_temperature;BMP_pressure;BME280_temperature;BME280_humidity;BME280_pressure;Samples;Min_cycle;Max_cycle;Signal;HPM_P1;HPM_P2
2022/06/08 00:01:22;;;;;;;;;;;;;;;-145.66;100.00;59599.19;10418552;28;20406;-68
2022/06/08 00:06:24;;;;;;;;;;;;;;;-145.66;100.00;59599.19;10417272;28;20004;-68
2022/06/08 00:11:27;;;;;;;;;;;;;;;-145.66;100.00;59599.19;10418020;28;19925;-67
2022/06/08 00:16:29;;;;;;;;;;;;;;;-145.66;100.00;59599.19;10417965;28;19929;-67
2022/06/08 00:21:32;;;;;;;;;;;;;;;-145.66;100.00;59599.19;10416620;28;20001;-67
2022/06/08 00:26:36;;;;;;;;;;;;;;;-145.66;100.00;59599.19;10416802;28;19921;-67
2022/06/08 00:31:38;;;;;;;;;;;;;;;-145.66;100.00;59599.19;10418062;28;19921;-67
2022/06/08 00:36:40;;;;;;;;;;;;;;;-145.66;100.00;59599.19;10417042;28;20436;-68
2022/06/08 00:41:48;;;;;;;;;;;;;;;-145.66;100.00;59599.19;10417546;28;19964;-67
2022/06/08 00:46:51;;;;;;;;;;;;;;;-145.66;100.00;59599.19;10416761;28;20265;-67
2022/06/08 00:51:53;;;;;;;;;;;;;;;-145.66;100.00;59599.19;10416113;28;19921;-67
2022/06/08 00:57:01;;;;;;;;;;;;;;;-145.66;100.00;59599.19;10415895;28;19928;-67
2022/06/08 01:02:03;;;;;;;;;;;;;;;-145.66;100.00;59599.19;10415804;28;19928;-67
2022/06/08 01:07:06;;;;;;;;;;;;;;;-145.66;100.00;59599.19;10415995;28;20372;-67
2022/06/08 01:12:10;;;;;;;;;;;;;;;-145.66;100.00;59599.19;10414793;28;19928;-67
2022/06/08 01:17:13;;;;;;;;;;;;;;;-145.66;100.00;59599.19;10414270;28;19944;-67
2022/06/08 01:22:17;;;;;;;;;;;;;;;-145.66;100.00;59599.19;10416334;28;19921;-67
2022/06/08 01:27:22;;;;;;;;;;;;;;;-145.66;100.00;59599.19;10414726;28;19928;-67
2022/06/08 01:32:28;;;;;;;;;;;;;;;-145.66;100.00;59599.19;10416069;28;19928;-67
2022/06/08 01:37:33;;;;;;;;;;;;;;;-145.66;100.00;59599.19;10414048;28;20372;-67
2022/06/08 01:42:39;;;;;;;;;;;;;;;-145.66;100.00;59599.19;10415884;28;19937;-67
2022/06/08 01:47:49;;;;;;;;;;;;;;;-145.66;100.00;59599.19;10415128;28;19927;-67
2022/06/08 01:53:07;;;;;;;;;;;;;;;-145.66;100.00;59599.19;10414141;28;19921;-67
2022/06/08 01:58:12;;;;;;;;;;;;;;;-145.66;100.00;59599.19;10413702;28;20372;-67
2022/06/08 02:03:20;;;;;;;;;;;;;;;-145.66;100.00;59599.19;10414902;28;19921;-67
2022/06/08 02:08:25;;;;;;;;;;;;;;;-145.66;100.00;59599.19;10415349;28;19921;-67
2022/06/08 02:13:36;;;;;;;;;;;;;;;-145.66;100.00;59599.19;10413551;28;19932;-67
2022/06/08 02:18:40;;;;;;;;;;;;;;;-145.66;100.00;59599.19;10415181;28;19921;-67
2022/06/08 02:23:45;;;;;;;;;;;;;;;-145.66;100.00;59599.19;10413948;28;19927;-67
2022/06/08 02:28:49;;;;;;;;;;;;;;;-145.66;100.00;59599.19;10418082;28;19971;-67
2022/06/08 02:39:27;;;;;;;;;;;;;;;-145.66;100.00;59599.19;10420810;28;20372;-67
2022/06/08 02:44:30;;;;;;;;;;;;;;;-145.66;100.00;59599.19;10422218;28;20003;-67
2022/06/08 02:49:33;;;;;;;;;;;;;;;-145.66;100.00;59599.19;10420905;28;19921;-67
2022/06/08 02:54:35;;;;;;;;;;;;;;;-145.66;100.00;59599.19;10420652;28;19921;-67
2022/06/08 02:59:51;;;;;;;;;;;;;;;-145.66;100.00;59599.19;10420958;28;19948;-67
2022/06/08 03:05:03;;;;;;;;;;;;;;;-145.66;100.00;59599.19;10419639;28;19920;-67
2022/06/08 03:10:07;;;;;;;;;;;;;;;-145.66;100.00;59599.19;10420571;28;20280;-67
2022/06/08 03:15:09;;;;;;;;;;;;;;;-145.66;100.00;59599.19;10419139;28;19921;-67
2022/06/08 03:20:12;;;;;;;;;;;;;;;-145.66;100.00;59599.19;10403249;28;20007;-67
2022/06/08 03:25:14;;;;;;;;;;;;;;;-145.66;100.00;59599.19;10420020;28;19921;-67
2022/06/08 03:30:16;;;;;;;;;;;;;;;-145.66;100.00;59599.19;10418654;28;19928;-67
2022/06/08 03:35:19;;;;;;;;;;;;;;;-145.66;100.00;59599.19;10420203;28;19921;-67
2022/06/08 03:40:21;;;;;;;;;;;;;;;-145.66;100.00;59599.19;10419175;28;19921;-67
2022/06/08 03:45:23;;;;;;;;;;;;;;;-145.66;100.00;59599.19;10419884;28;19921;-67
2022/06/08 03:50:27;;;;;;;;;;;;;;;-145.66;100.00;59599.19;10401537;28;20360;-67
2022/06/08 03:55:29;;;;;;;;;;;;;;;-145.66;100.00;59599.19;10419432;28;19921;-67
2022/06/08 04:00:31;;;;;;;;;;;;;;;-145.66;100.00;59599.19;10418628;28;19920;-67
2022/06/08 04:05:33;;;;;;;;;;;;;;;-145.66;100.00;59599.19;10417884;28;19927;-67
2022/06/08 04:10:36;;;;;;;;;;;;;;;-145.66;100.00;59599.19;10418119;28;19921;-67
2022/06/08 04:15:44;;;;;;;;;;;;;;;-145.66;100.00;59599.19;10417484;28;20292;-67
2022/06/08 04:20:50;;;;;;;;;;;;;;;-145.66;100.00;59599.19;10415891;28;19971;-67
2022/06/08 04:25:52;;;;;;;;;;;;;;;-145.66;100.00;59599.19;10415895;28;20264;-67
2022/06/08 04:30:54;;;;;;;;;;;;;;;-145.66;100.00;59599.19;10416166;28;19921;-67
2022/06/08 04:35:57;;;;;;;;;;;;;;;-145.66;100.00;59599.19;10417792;28;19971;-67
2022/06/08 04:40:59;;;;;;;;;;;;;;;-145.66;100.00;59599.19;10417607;28;19921;-67
2022/06/08 04:46:17;;;;;;;;;;;;;;;-145.66;100.00;59599.19;10416000;28;20431;-68
2022/06/08 04:51:20;;;;;;;;;;;;;;;-145.66;100.00;59599.19;10430700;28;20359;-68
2022/06/08 04:56:22;;;;;;;;;;;;;;;-145.66;100.00;59599.19;10432418;28;19927;-68
2022/06/08 05:01:25;;;;;;;;;;;;;;;-145.66;100.00;59599.19;10458156;28;19920;-68
2022/06/08 05:06:27;;;;;;;;;;;;;;;-145.66;100.00;59599.19;10457519;28;19921;-68
2022/06/08 05:11:29;;;;;;;;;;;;;;;-145.66;100.00;59599.19;10457244;28;20303;-68
2022/06/08 05:16:31;;;;;;;;;;;;;;;-145.66;100.00;59599.19;10455792;28;20279;-68
2022/06/08 05:21:34;;;;;;;;;;;;;;;-145.66;100.00;59599.19;10455820;28;20021;-68
2022/06/08 05:26:40;;;;;;;;;;;;;;;-145.66;100.00;59599.19;10456434;28;19952;-68
2022/06/08 05:31:42;;;;;;;;;;;;;;;-145.66;100.00;59599.19;10455881;28;20264;-68
2022/06/08 05:36:45;;;;;;;;;;;;;;;-145.66;100.00;59599.19;10455947;28;19924;-71
2022/06/08 05:41:47;;;;;;;;;;;;;;;-145.66;100.00;59599.19;10451861;28;19921;-71
2022/06/08 05:46:49;;;;;;;;;;;;;;;-145.66;100.00;59599.19;10415871;28;19928;-71
2022/06/08 05:51:52;;;;;;;;;;;;;;;-145.66;100.00;59599.19;10415788;28;19921;-71
2022/06/08 05:56:54;;;;;;;;;;;;;;;-145.66;100.00;59599.19;10415664;28;19921;-71
2022/06/08 06:01:56;;;;;;;;;;;;;;;-145.66;100.00;59599.19;10416275;28;19921;-71
2022/06/08 06:06:59;;;;;;;;;;;;;;;-145.66;100.00;59599.19;10423090;28;19967;-72
2022/06/08 06:12:01;;;;;;;;;;;;;;;-145.66;100.00;59599.19;10423542;28;19932;-71
2022/06/08 06:17:04;;;;;;;;;;;;;;;-145.66;100.00;59599.19;10405133;28;19921;-72
2022/06/08 06:22:06;;;;;;;;;;;;;;;-145.66;100.00;59599.19;10421355;28;20368;-72
2022/06/08 06:27:08;;;;;;;;;;;;;;;-145.66;100.00;59599.19;10421781;28;19921;-72
2022/06/08 06:32:12;;;;;;;;;;;;;;;-145.66;100.00;59599.19;10422734;28;19921;-72
2022/06/08 06:37:14;;;;;;;;;;;;;;;-145.66;100.00;59599.19;10421319;28;19921;-72
2022/06/08 06:42:18;;;;;;;;;;;;;;;-145.66;100.00;59599.19;10413554;28;19927;-72
2022/06/08 06:47:20;;;;;;;;;;;;;;;-145.66;100.00;59599.19;10461906;28;19921;-72
2022/06/08 06:52:22;;;;;;;;;;;;;;;-145.66;100.00;59599.19;10462677;28;19925;-73
2022/06/08 06:57:25;;;;;;;;;;;;;;;-145.66;100.00;59599.19;10462759;28;20248;-72
2022/06/08 07:02:27;;;;;;;;;;;;;;;-145.66;100.00;59599.19;10462231;28;20363;-72
2022/06/08 07:07:29;;;;;;;;;;;;;;;-145.66;100.00;59599.19;10460906;28;20394;-74
2022/06/08 07:12:31;;;;;;;;;;;;;;;-145.66;100.00;59599.19;10461226;28;19947;-72
2022/06/08 07:17:33;;;;;;;;;;;;;;;-145.66;100.00;59599.19;10461537;28;20279;-72
2022/06/08 07:22:36;;;;;;;;;;;;;;;-145.66;100.00;59599.19;10461490;28;20280;-72
2022/06/08 07:27:38;;;;;;;;;;;;;;;-145.66;100.00;59599.19;10460170;28;19920;-72
2022/06/08 07:32:41;;;;;;;;;;;;;;;-145.66;100.00;59599.19;10460611;28;19928;-71
2022/06/08 07:37:43;;;;;;;;;;;;;;;-145.66;100.00;59599.19;10461442;28;19921;-72
2022/06/08 07:42:45;;;;;;;;;;;;;;;-145.66;100.00;59599.19;10459276;28;19944;-72
2022/06/08 07:53:08;;;;;;;;;;;;;;;-145.66;100.00;59599.19;10460222;28;20278;-72
2022/06/08 07:58:11;;;;;;;;;;;;;;;-145.66;100.00;59599.19;10459921;28;19920;-72
2022/06/08 08:03:16;;;;;;;;;;;;;;;-145.66;100.00;59599.19;10459750;28;20283;-72
2022/06/08 08:08:19;;;;;;;;;;;;;;;-145.66;100.00;59599.19;10459371;28;19929;-72
2022/06/08 08:13:21;;;;;;;;;;;;;;;-145.66;100.00;59599.19;10458919;28;19925;-72
2022/06/08 08:18:23;;;;;;;;;;;;;;;-145.66;100.00;59599.19;10457886;28;20371;-71
2022/06/08 08:23:26;;;;;;;;;;;;;;;-145.66;100.00;59599.19;10459662;28;19921;-72
2022/06/08 08:28:28;;;;;;;;;;;;;;;-145.66;100.00;59599.19;10458051;28;19928;-72
2022/06/08 08:33:30;;;;;;;;;;;;;;;-145.66;100.00;59599.19;10458414;28;20003;-72
2022/06/08 08:38:33;;;;;;;;;;;;;;;-145.66;100.00;59599.19;10458410;28;20368;-72
2022/06/08 08:43:37;;;;;;;;;;;;;;;-145.66;100.00;59599.19;10458459;28;19927;-72
2022/06/08 08:48:47;;;;;;;;;;;;;;;-145.66;100.00;59599.19;10457785;28;20295;-72
2022/06/08 08:54:05;;;;;;;;;;;;;;;-145.66;100.00;59599.19;10457432;28;19921;-72
2022/06/08 08:59:17;;;;;;;;;;;;;;;-145.66;100.00;59599.19;10457692;28;20288;-72
2022/06/08 09:04:29;;;;;;;;;;;;;;;-145.66;100.00;59599.19;10457033;28;19920;-72
2022/06/08 09:09:34;;;;;;;;;;;;;;;-145.66;100.00;59599.19;10458022;28;19924;-73
2022/06/08 09:15:02;;;;;;;;;;;;;;;-145.66;100.00;59599.19;10456088;28;20031;-72
2022/06/08 09:20:22;;;;;;;;;;;;;;;-145.66;100.00;59599.19;10456781;28;19921;-72
2022/06/08 09:25:31;;;;;;;;;;;;;;;-145.66;100.00;59599.19;10456347;28;19927;-72
2022/06/08 09:30:47;;;;;;;;;;;;;;;-145.66;100.00;59599.19;10456766;28;19927;-72
2022/06/08 09:35:52;;;;;;;;;;;;;;;-145.66;100.00;59599.19;10455160;28;19921;-72
2022/06/08 09:41:06;;;;;;;;;;;;;;;-145.66;100.00;59599.19;10455391;28;20372;-72
2022/06/08 09:46:11;;;;;;;;;;;;;;;-145.66;100.00;59599.19;10455067;28;19991;-72
2022/06/08 09:51:26;;;;;;;;;;;;;;;-145.66;100.00;59599.19;10456994;28;19955;-72
2022/06/08 09:56:55;;;;;;;;;;;;;;;-145.66;100.00;59599.19;10456278;28;19921;-72
2022/06/08 10:01:57;;;;;;;;;;;;;;;-145.66;100.00;59599.19;10455899;28;19921;-73
2022/06/08 10:07:15;;;;;;;;;;;;;;;-145.66;100.00;59599.19;10456093;28;20330;-72
2022/06/08 10:12:23;;;;;;;;;;;;;;;-145.66;100.00;59599.19;10454849;28;19921;-72
2022/06/08 10:17:29;;;;;;;;;;;;;;;-145.66;100.00;59599.19;10437247;28;19924;-72
2022/06/08 10:22:36;;;;;;;;;;;;;;;-145.66;100.00;59599.19;10434444;28;20307;-72
2022/06/08 10:27:52;;;;;;;;;;;;;;;-145.66;100.00;59599.19;10430662;28;19927;-73
2022/06/08 10:33:00;;;;;;;;;;;;;;;-145.66;100.00;59599.19;10430450;28;19928;-72
2022/06/08 10:38:03;;;;;;;;;;;;;;;-145.66;100.00;59599.19;10429617;28;19925;-72
2022/06/08 10:43:05;;;;;;;;;;;;;;;-145.66;100.00;59599.19;10429052;28;20348;-72
2022/06/08 10:48:10;;;;;;;;;;;;;;;-145.66;100.00;59599.19;10428955;28;19947;-73
2022/06/08 10:59:19;;;;;;;;;;;;;;;-145.66;100.00;59599.19;10414336;28;19987;-68
2022/06/08 11:04:31;;;;;;;;;;;;;;;-145.66;100.00;59599.19;10466351;28;19931;-67
2022/06/08 11:09:33;;;;;;;;;;;;;;;-145.66;100.00;59599.19;10453476;28;19926;-67
2022/06/08 11:14:47;;;;;;;;;;;;;;;-145.66;100.00;59599.19;10457031;28;20461;-68
2022/06/08 11:19:53;;;;;;;;;;;;;;;-145.66;100.00;59599.19;10455072;28;20351;-67
2022/06/08 11:24:55;;;;;;;;;;;;;;;-145.66;100.00;59599.19;10469543;28;19925;-67
2022/06/08 11:30:01;;;;;;;;;;;;;;;-145.66;100.00;59599.19;10470557;28;19932;-67
2022/06/08 11:35:06;;;;;;;;;;;;;;;-145.66;100.00;59599.19;10454596;28;19925;-67
2022/06/08 11:40:10;;;;;;;;;;;;;;;-145.66;100.00;59599.19;10455174;28;19924;-67
2022/06/08 11:45:14;;;;;;;;;;;;;;;-145.66;100.00;59599.19;10469892;28;20272;-67
2022/06/08 11:50:18;;;;;;;;;;;;;;;-145.66;100.00;59599.19;10469669;28;20249;-67
2022/06/08 11:55:21;;;;;;;;;;;;;;;-145.66;100.00;59599.19;10470458;28;20344;-67
2022/06/08 12:00:25;;;;;;;;;;;;;;;-145.66;100.00;59599.19;10442796;22;19956;-68
2022/06/08 12:05:29;;;;;;;;;;;;;;;-145.66;100.00;59599.19;10411076;28;19925;-68
2022/06/08 12:10:32;;;;;;;;;;;;;;;-145.66;100.00;59599.19;10412085;28;19932;-68
2022/06/08 12:15:38;;;;;;;;;;;;;;;-145.66;100.00;59599.19;10410842;28;19925;-67
2022/06/08 12:20:40;;;;;;;;;;;;;;;-145.66;100.00;59599.19;10410971;28;19931;-68
2022/06/08 12:25:51;;;;;;;;;;;;;;;-145.66;100.00;59599.19;10411108;28;19925;-68
2022/06/08 12:30:56;;;;;;;;;;;;;;;-145.66;100.00;59599.19;10408644;28;19928;-68
2022/06/08 12:36:06;;;;;;;;;;;;;;;-145.66;100.00;59599.19;10451811;28;20486;-68
2022/06/08 12:41:13;;;;;;;;;;;;;;;-145.66;100.00;59599.19;10451482;28;20375;-69
2022/06/08 12:46:31;;;;;;;;;;;;;;;-145.66;100.00;59599.19;10451510;28;19947;-68
2022/06/08 12:51:36;;;;;;;;;;;;;;;-145.66;100.00;59599.19;10450812;28;20302;-69
2022/06/08 12:56:38;;;;;;;;;;;;;;;-145.66;100.00;59599.19;10450051;28;19931;-68
2022/06/08 13:01:41;;;;;;;;;;;;;;;-145.66;100.00;59599.19;10451749;28;19924;-68
2022/06/08 13:06:43;;;;;;;;;;;;;;;-145.66;100.00;59599.19;10449901;28;19978;-69
2022/06/08 13:11:47;;;;;;;;;;;;;;;-145.66;100.00;59599.19;10414828;28;20392;-68
2022/06/08 13:16:49;;;;;;;;;;;;;;;-145.66;100.00;59599.19;10398192;28;19920;-69
2022/06/08 13:21:51;;;;;;;;;;;;;;;-145.66;100.00;59599.19;10399020;28;19945;-69
2022/06/08 13:26:54;;;;;;;;;;;;;;;-145.66;100.00;59599.19;10415410;28;19925;-69
2022/06/08 13:31:56;;;;;;;;;;;;;;;-145.66;100.00;59599.19;10415907;28;19925;-69
2022/06/08 13:36:58;;;;;;;;;;;;;;;-145.66;100.00;59599.19;10414717;28;19921;-69
2022/06/08 13:42:04;;;;;;;;;;;;;;;-145.66;100.00;59599.19;10398495;28;20003;-70
2022/06/08 13:47:11;;;;;;;;;;;;;;;-145.66;100.00;59599.19;10414997;28;20012;-69
2022/06/08 13:52:15;;;;;;;;;;;;;;;-145.66;100.00;59599.19;10415795;28;19932;-70
2022/06/08 13:57:18;;;;;;;;;;;;;;;-145.66;100.00;59599.19;10397023;28;20383;-70
2022/06/08 14:02:22;;;;;;;;;;;;;;;-145.66;100.00;59599.19;10398029;28;19921;-69
2022/06/08 14:13:01;;;;;;;;;;;;;;;-145.66;100.00;59599.19;10415480;28;19928;-70
2022/06/08 14:18:04;;;;;;;;;;;;;;;-145.66;100.00;59599.19;10415327;28;19932;-70
2022/06/08 14:23:09;;;;;;;;;;;;;;;-145.66;100.00;59599.19;10416262;28;19928;-70
2022/06/08 14:28:11;;;;;;;;;;;;;;;-145.66;100.00;59599.19;10422436;28;19952;-70
2022/06/08 14:33:21;;;;;;;;;;;;;;;-145.66;100.00;59599.19;10438263;28;19929;-70
2022/06/08 14:38:25;;;;;;;;;;;;;;;-145.66;100.00;59599.19;10437986;28;19925;-70
2022/06/08 14:43:27;;;;;;;;;;;;;;;-145.66;100.00;59599.19;10421839;28;20393;-70
2022/06/08 14:48:40;;;;;;;;;;;;;;;-145.66;100.00;59599.19;10422258;28;19921;-71
2022/06/08 14:53:42;;;;;;;;;;;;;;;-145.66;100.00;59599.19;10422111;28;19921;-70
2022/06/08 14:58:44;;;;;;;;;;;;;;;-145.66;100.00;59599.19;10421392;28;19925;-70
2022/06/08 15:03:47;;;;;;;;;;;;;;;-145.66;100.00;59599.19;10421695;28;19923;-70
2022/06/08 15:08:49;;;;;;;;;;;;;;;-145.66;100.00;59599.19;10421323;28;19938;-70
2022/06/08 15:13:56;;;;;;;;;;;;;;;-145.66;100.00;59599.19;10420881;28;19971;-70
2022/06/08 15:18:59;;;;;;;;;;;;;;;-145.66;100.00;59599.19;10420864;28;19927;-70
2022/06/08 15:24:01;;;;;;;;;;;;;;;-145.66;100.00;59599.19;10420929;28;19927;-70
2022/06/08 15:29:05;;;;;;;;;;;;;;;-145.66;100.00;59599.19;10420433;28;19940;-70
2022/06/08 15:34:12;;;;;;;;;;;;;;;-145.66;100.00;59599.19;10420204;28;19921;-70
2022/06/08 15:39:16;;;;;;;;;;;;;;;-145.66;100.00;59599.19;10418158;28;19925;-70
2022/06/08 15:44:21;;;;;;;;;;;;;;;-145.66;100.00;59599.19;10435571;28;19921;-70
2022/06/08 15:49:23;;;;;;;;;;;;;;;-145.66;100.00;59599.19;10435122;28;19921;-70
2022/06/08 15:54:26;;;;;;;;;;;;;;;-145.66;100.00;59599.19;10419070;28;19921;-70
2022/06/08 15:59:29;;;;;;;;;;;;;;;-145.66;100.00;59599.19;10399833;28;20000;-70
2022/06/08 16:04:34;;;;;;;;;;;;;;;-145.66;100.00;59599.19;10417828;28;20367;-69
2022/06/08 16:09:36;;;;;;;;;;;;;;;-145.66;100.00;59599.19;10418026;28;20446;-70
2022/06/08 16:14:39;;;;;;;;;;;;;;;-145.66;100.00;59599.19;10415956;28;19925;-70
2022/06/08 16:19:42;;;;;;;;;;;;;;;-145.66;100.00;59599.19;10416058;28;20285;-70
2022/06/08 16:24:45;;;;;;;;;;;;;;;-145.66;100.00;59599.19;10414290;28;19925;-70
2022/06/08 16:29:47;;;;;;;;;;;;;;;-145.66;100.00;59599.19;10416343;28;20375;-70
2022/06/08 16:34:50;;;;;;;;;;;;;;;-145.66;100.00;59599.19;10417050;28;19921;-70
2022/06/08 16:39:52;;;;;;;;;;;;;;;-145.66;100.00;59599.19;10416322;28;19921;-70
2022/06/08 16:44:54;;;;;;;;;;;;;;;-145.66;100.00;59599.19;10416376;28;19925;-70
2022/06/08 16:49:57;;;;;;;;;;;;;;;-145.66;100.00;59599.19;10416672;28;20264;-70
2022/06/08 16:54:59;;;;;;;;;;;;;;;-145.66;100.00;59599.19;10417384;28;19921;-70
2022/06/08 17:00:03;;;;;;;;;;;;;;;-145.66;100.00;59599.19;10416090;28;19921;-70
2022/06/08 17:05:06;;;;;;;;;;;;;;;-145.66;100.00;59599.19;10416328;28;20423;-70
2022/06/08 17:10:09;;;;;;;;;;;;;;;-145.66;100.00;59599.19;10416790;28;19921;-70
2022/06/08 17:15:11;;;;;;;;;;;;;;;-145.66;100.00;59599.19;10415404;28;19921;-70
2022/06/08 17:20:15;;;;;;;;;;;;;;;-145.66;100.00;59599.19;10416395;28;19921;-69
2022/06/08 17:25:17;;;;;;;;;;;;;;;-145.66;100.00;59599.19;10398859;28;19921;-70
2022/06/08 17:30:19;;;;;;;;;;;;;;;-145.66;100.00;59599.19;10415693;28;20365;-70
2022/06/08 17:35:22;;;;;;;;;;;;;;;-145.66;100.00;59599.19;10415382;28;19928;-69
2022/06/08 17:40:24;;;;;;;;;;;;;;;-145.66;100.00;59599.19;10415909;28;19925;-70
2022/06/08 17:45:26;;;;;;;;;;;;;;;-145.66;100.00;59599.19;10416090;28;19927;-69
2022/06/08 17:50:30;;;;;;;;;;;;;;;-145.66;100.00;59599.19;10415919;28;19927;-69
2022/06/08 17:55:33;;;;;;;;;;;;;;;-145.66;100.00;59599.19;10414725;28;19925;-69
2022/06/08 18:00:35;;;;;;;;;;;;;;;-145.66;100.00;59599.19;10458670;22;19921;-65
2022/06/08 18:05:37;;;;;;;;;;;;;;;-145.66;100.00;59599.19;10457216;28;19927;-65
2022/06/08 18:10:41;;;;;;;;;;;;;;;-145.66;100.00;59599.19;10456692;28;19925;-65
2022/06/08 18:15:45;;;;;;;;;;;;;;;-145.66;100.00;59599.19;10456940;28;20287;-65
2022/06/08 18:20:47;;;;;;;;;;;;;;;-145.66;100.00;59599.19;10456391;28;20416;-66
2022/06/08 18:25:50;;;;;;;;;;;;;;;-145.66;100.00;59599.19;10456889;28;20670;-66
2022/06/08 18:30:53;;;;;;;;;;;;;;;-145.66;100.00;59599.19;10455923;28;20020;-65
2022/06/08 18:35:57;;;;;;;;;;;;;;;-145.66;100.00;59599.19;10455117;28;19924;-65
2022/06/08 18:41:06;;;;;;;;;;;;;;;-145.66;100.00;59599.19;10456275;28;19930;-66
2022/06/08 18:46:08;;;;;;;;;;;;;;;-145.66;100.00;59599.19;10438689;28;19925;-65
2022/06/08 18:51:11;;;;;;;;;;;;;;;-145.66;100.00;59599.19;10455121;28;19927;-67
2022/06/08 18:56:14;;;;;;;;;;;;;;;-145.66;100.00;59599.19;10455001;28;19931;-67
2022/06/08 19:01:18;;;;;;;;;;;;;;;-145.66;100.00;59599.19;10454904;28;19935;-67
2022/06/08 19:06:21;;;;;;;;;;;;;;;-145.66;100.00;59599.19;10455285;28;20458;-67
2022/06/08 19:11:23;;;;;;;;;;;;;;;-145.66;100.00;59599.19;10487373;28;19925;-66
2022/06/08 19:16:26;;;;;;;;;;;;;;;-145.66;100.00;59599.19;10495081;28;19972;-66
2022/06/08 19:21:28;;;;;;;;;;;;;;;-145.66;100.00;59599.19;10494793;28;20287;-67
2022/06/08 19:26:31;;;;;;;;;;;;;;;-145.66;100.00;59599.19;10494965;28;19932;-67
2022/06/08 19:31:34;;;;;;;;;;;;;;;-145.66;100.00;59599.19;10496305;28;19928;-67
2022/06/08 19:36:38;;;;;;;;;;;;;;;-145.66;100.00;59599.19;10482445;28;19929;-66
2022/06/08 19:41:41;;;;;;;;;;;;;;;-145.66;100.00;59599.19;10452594;28;20383;-66
2022/06/08 19:46:43;;;;;;;;;;;;;;;-145.66;100.00;59599.19;10468861;28;20298;-67
2022/06/08 19:51:45;;;;;;;;;;;;;;;-145.66;100.00;59599.19;10495388;28;19960;-68
2022/06/08 19:56:48;;;;;;;;;;;;;;;-145.66;100.00;59599.19;10491582;28;19925;-66
2022/06/08 20:01:52;;;;;;;;;;;;;;;-145.66;100.00;59599.19;10494222;28;19924;-67
2022/06/08 20:06:54;;;;;;;;;;;;;;;-145.66;100.00;59599.19;10494290;28;20006;-67
2022/06/08 20:11:56;;;;;;;;;;;;;;;-145.66;100.00;59599.19;10492681;28;19928;-67
2022/06/08 20:16:59;;;;;;;;;;;;;;;-145.66;100.00;59599.19;10493367;28;19924;-67
2022/06/08 20:22:01;;;;;;;;;;;;;;;-145.66;100.00;59599.19;10493850;28;20367;-66
2022/06/08 20:27:04;;;;;;;;;;;;;;;-145.66;100.00;59599.19;10500453;28;19990;-67
2022/06/08 20:32:07;;;;;;;;;;;;;;;-145.66;100.00;59599.19;10498899;28;19931;-66
2022/06/08 20:37:10;;;;;;;;;;;;;;;-145.66;100.00;59599.19;10498797;28;20808;-65
2022/06/08 20:42:15;;;;;;;;;;;;;;;-145.66;100.00;59599.19;10501024;28;19920;-65
2022/06/08 20:47:18;;;;;;;;;;;;;;;-145.66;100.00;59599.19;10498721;28;19920;-65
2022/06/08 20:52:21;;;;;;;;;;;;;;;-145.66;100.00;59599.19;10499780;28;19920;-66
2022/06/08 20:57:23;;;;;;;;;;;;;;;-145.66;100.00;59599.19;10497926;28;19920;-66
2022/06/08 21:02:26;;;;;;;;;;;;;;;-145.66;100.00;59599.19;10499129;28;19920;-66
2022/06/08 21:07:28;;;;;;;;;;;;;;;-145.66;100.00;59599.19;10497467;28;19920;-66
2022/06/08 21:12:31;;;;;;;;;;;;;;;-145.66;100.00;59599.19;10483772;28;19920;-65
2022/06/08 21:17:34;;;;;;;;;;;;;;;-145.66;100.00;59599.19;10498656;28;20462;-66
2022/06/08 21:22:37;;;;;;;;;;;;;;;-145.66;100.00;59599.19;10498834;28;19924;-66
2022/06/08 21:27:39;;;;;;;;;;;;;;;-145.66;100.00;59599.19;10498451;28;19920;-66
2022/06/08 21:32:42;;;;;;;;;;;;;;;-145.66;100.00;59599.19;10498248;28;19925;-66
2022/06/08 21:37:44;;;;;;;;;;;;;;;-145.66;100.00;59599.19;10498173;28;19920;-67
2022/06/08 21:42:47;;;;;;;;;;;;;;;-145.66;100.00;59599.19;10497218;28;20014;-66
2022/06/08 21:47:50;;;;;;;;;;;;;;;-145.66;100.00;59599.19;10497167;28;19921;-66
2022/06/08 21:52:54;;;;;;;;;;;;;;;-145.66;100.00;59599.19;10497578;28;19926;-66
2022/06/08 21:57:59;;;;;;;;;;;;;;;-145.66;100.00;59599.19;10496767;28;19920;-66
2022/06/08 22:03:01;;;;;;;;;;;;;;;-145.66;100.00;59599.19;10498053;28;19931;-66
2022/06/08 22:08:04;;;;;;;;;;;;;;;-145.66;100.00;59599.19;10497348;28;20333;-67
2022/06/08 22:13:24;;;;;;;;;;;;;;;-145.66;100.00;59599.19;10497759;28;19927;-67
2022/06/08 22:18:26;;;;;;;;;;;;;;;-145.66;100.00;59599.19;10496811;28;19959;-67
2022/06/08 22:23:30;;;;;;;;;;;;;;;-145.66;100.00;59599.19;10495865;28;20271;-67
2022/06/08 22:28:33;;;;;;;;;;;;;;;-145.66;100.00;59599.19;10497828;28;19946;-67
2022/06/08 22:33:36;;;;;;;;;;;;;;;-145.66;100.00;59599.19;10495588;28;19927;-67
2022/06/08 22:38:38;;;;;;;;;;;;;;;-145.66;100.00;59599.19;10495466;28;19920;-67
2022/06/08 22:43:40;;;;;;;;;;;;;;;-145.66;100.00;59599.19;10497092;28;20283;-67
2022/06/08 22:48:43;;;;;;;;;;;;;;;-145.66;100.00;59599.19;10505004;28;19924;-67
2022/06/08 22:53:45;;;;;;;;;;;;;;;-145.66;100.00;59599.19;10503832;28;19927;-67
2022/06/08 22:58:47;;;;;;;;;;;;;;;-145.66;100.00;59599.19;10504113;28;19928;-67
2022/06/08 23:03:50;;;;;;;;;;;;;;;-145.66;100.00;59599.19;10504348;28;19920;-67
2022/06/08 23:08:52;;;;;;;;;;;;;;;-145.66;100.00;59599.19;10503503;28;19920;-67
2022/06/08 23:13:54;;;;;;;;;;;;;;;-145.66;100.00;59599.19;10503556;28;19920;-67
2022/06/08 23:24:17;;;;;;;;;;;;;;;-145.66;100.00;59599.19;10502459;28;19939;-67
2022/06/08 23:29:19;;;;;;;;;;;;;;;-145.66;100.00;59599.19;10503609;28;19920;-67
2022/06/08 23:34:22;;;;;;;;;;;;;;;-145.66;100.00;59599.19;10501112;28;20380;-67
2022/06/08 23:39:24;;;;;;;;;;;;;;;-145.66;100.00;59599.19;10503057;28;19935;-66
2022/06/08 23:44:26;;;;;;;;;;;;;;;-145.66;100.00;59599.19;10500743;28;20418;-67
2022/06/08 23:49:28;;;;;;;;;;;;;;;-145.66;100.00;59599.19;10502490;28;19920;-66
2022/06/08 23:54:31;;;;;;;;;;;;;;;-145.66;100.00;59599.19;10501028;28;19943;-67
2022/06/08 23:59:33;;;;;;;;;;;;;;;-145.66;100.00;59599.19;10501406;28;19920;-66
